Time;durP1;ratioP1;P1;durP2;ratioP2;P2;SDS_P1;SDS_P2;PMS_P1;PMS_P2;Temp;Humidity;BMP_temperature;BMP_pressure;BME280_temperature;BME280_humidity;BME280_pressure;Samples;Min_cycle;Max_cycle;Signal;HPM_P1;HPM_P2
2023/08/09 00:02:19;;;;;;;7.95;3.85;;;;;;;;;;4426583;32;59286;-56
2023/08/09 00:05:06;;;;;;;6.55;3.87;;;;;;;;;;4414151;32;69590;-56
2023/08/09 00:07:52;;;;;;;6.15;3.22;;;;;;;;;;4426152;32;68064;-57
2023/08/09 00:10:39;;;;;;;7.53;3.55;;;;;;;;;;4426237;32;67349;-56
2023/08/09 00:13:25;;;;;;;6.25;3.45;;;;;;;;;;4411214;32;72306;-56
2023/08/09 00:16:12;;;;;;;8.45;3.62;;;;;;;;;;4400615;32;67464;-57
2023/08/09 00:18:59;;;;;;;9.52;4.30;;;;;;;;;;4426170;32;66227;-57
2023/08/09 00:21:46;;;;;;;6.87;3.42;;;;;;;;;;4414309;32;60282;-56
2023/08/09 00:24:32;;;;;;;9.30;3.67;;;;;;;;;;4413844;32;70918;-57
2023/08/09 00:27:20;;;;;;;7.78;4.00;;;;;;;;;;4413970;32;65032;-57
2023/08/09 00:30:14;;;;;;;6.22;3.72;;;;;;;;;;4425910;32;66950;-56
2023/08/09 00:33:00;;;;;;;5.55;3.15;;;;;;;;;;4426198;32;60249;-57
2023/08/09 00:35:47;;;;;;;;;;;;;;;;;;4414150;32;70809;-56
2023/08/09 00:38:33;;;;;;;7.43;3.08;;;;;;;;;;4426038;32;69340;-56
2023/08/09 00:41:20;;;;;;;6.68;3.62;;;;;;;;;;4426102;32;68105;-56
2023/08/09 00:44:07;;;;;;;10.27;3.40;;;;;;;;;;4413796;32;71362;-57
2023/08/09 00:46:54;;;;;;;5.90;3.37;;;;;;;;;;4423402;32;65055;-56
2023/08/09 00:49:40;;;;;;;6.07;3.55;;;;;;;;;;4410517;32;69317;-57
2023/08/09 00:52:27;;;;;;;7.05;3.72;;;;;;;;;;4395726;32;67383;-56
2023/08/09 00:55:14;;;;;;;6.72;3.95;;;;;;;;;;4410195;32;71736;-57
2023/08/09 00:58:01;;;;;;;7.37;3.00;;;;;;;;;;4397825;32;66116;-57
2023/08/09 01:00:47;;;;;;;8.43;3.10;;;;;;;;;;4398000;32;67659;-56
2023/08/09 01:03:34;;;;;;;6.65;2.95;;;;;;;;;;4395781;32;59926;-57
2023/08/09 01:06:38;;;;;;;6.03;3.00;;;;;;;;;;4410294;32;70163;-57
2023/08/09 01:10:05;;;;;;;5.93;3.15;;;;;;;;;;4405728;32;68475;-56
2023/08/09 01:12:59;;;;;;;6.20;3.17;;;;;;;;;;4399896;32;67013;-56
2023/08/09 01:15:46;;;;;;;6.30;3.40;;;;;;;;;;4366826;32;59198;-56
2023/08/09 01:18:33;;;;;;;7.28;3.35;;;;;;;;;;4387660;32;69595;-57
2023/08/09 01:21:24;;;;;;;5.43;2.90;;;;;;;;;;4388051;32;69258;-56
2023/08/09 01:24:12;;;;;;;10.57;3.62;;;;;;;;;;4387883;32;67599;-56
2023/08/09 01:26:58;;;;;;;6.28;3.47;;;;;;;;;;4387620;32;71701;-56
2023/08/09 01:29:45;;;;;;;5.43;3.17;;;;;;;;;;4377218;32;66046;-56
2023/08/09 01:32:32;;;;;;;4.97;3.10;;;;;;;;;;4387679;32;67600;-56
2023/08/09 01:35:19;;;;;;;4.80;3.28;;;;;;;;;;4387697;32;60064;-57
2023/08/09 01:38:10;;;;;;;5.43;3.42;;;;;;;;;;4387468;32;70359;-56
2023/08/09 01:40:57;;;;;;;10.05;3.55;;;;;;;;;;4399581;32;66240;-56
2023/08/09 01:43:44;;;;;;;6.80;3.30;;;;;;;;;;4366259;32;66670;-57
2023/08/09 01:46:30;;;;;;;5.47;2.97;;;;;;;;;;4377004;32;60064;-57
2023/08/09 01:49:23;;;;;;;;;;;;;;;;;;4399774;32;70812;-56
2023/08/09 01:52:11;;;;;;;7.03;3.45;;;;;;;;;;4387516;32;69636;-57
2023/08/09 01:54:58;;;;;;;4.80;3.37;;;;;;;;;;4399485;32;67505;-57
2023/08/09 01:57:48;;;;;;;4.50;3.17;;;;;;;;;;4386850;32;70836;-57
2023/08/09 02:00:35;;;;;;;7.05;4.18;;;;;;;;;;4387333;32;66214;-56
2023/08/09 02:03:22;;;;;;;5.18;3.08;;;;;;;;;;4387256;32;66457;-57
2023/08/09 02:06:08;;;;;;;7.28;3.55;;;;;;;;;;4399329;32;66783;-56
2023/08/09 02:08:55;;;;;;;4.80;3.05;;;;;;;;;;4373725;32;73340;-56
2023/08/09 02:11:41;;;;;;;7.25;3.22;;;;;;;;;;4387189;32;65723;-56
2023/08/09 02:14:28;;;;;;;4.95;3.12;;;;;;;;;;4399228;32;67442;-56
2023/08/09 02:17:14;;;;;;;7.53;4.00;;;;;;;;;;4399517;32;59389;-57
2023/08/09 02:20:01;;;;;;;5.10;3.03;;;;;;;;;;4373621;32;71218;-56
2023/08/09 02:22:48;;;;;;;6.50;3.55;;;;;;;;;;4386543;32;69482;-56
2023/08/09 02:25:35;;;;;;;9.10;4.40;;;;;;;;;;4398992;32;67514;-56
2023/08/09 02:28:22;;;;;;;8.10;3.45;;;;;;;;;;4399227;32;59568;-57
2023/08/09 02:31:08;;;;;;;5.62;3.55;;;;;;;;;;4386932;32;69959;-56
2023/08/09 02:33:55;;;;;;;5.07;3.37;;;;;;;;;;4386614;32;68612;-56
2023/08/09 02:36:42;;;;;;;6.65;3.50;;;;;;;;;;4384436;32;68709;-56
2023/08/09 02:39:28;;;;;;;8.38;3.90;;;;;;;;;;4386516;32;71888;-57
2023/08/09 02:42:16;;;;;;;10.77;4.20;;;;;;;;;;4399012;32;65832;-57
2023/08/09 02:45:03;;;;;;;10.43;4.30;;;;;;;;;;4398822;32;67553;-57
2023/08/09 02:47:51;;;;;;;7.53;4.20;;;;;;;;;;4387047;32;59295;-56
2023/08/09 02:50:37;;;;;;;13.02;4.43;;;;;;;;;;4386726;32;69647;-57
2023/08/09 02:53:37;;;;;;;11.12;4.53;;;;;;;;;;4398825;32;66731;-57
2023/08/09 02:56:23;;;;;;;8.10;4.68;;;;;;;;;;4398700;32;66480;-58
2023/08/09 02:59:10;;;;;;;8.43;4.00;;;;;;;;;;4383726;32;61618;-57
2023/08/09 03:01:57;;;;;;;11.75;4.03;;;;;;;;;;4398586;32;70755;-57
2023/08/09 03:04:45;;;;;;;8.30;4.43;;;;;;;;;;4398310;32;69308;-57
2023/08/09 03:07:31;;;;;;;;;;;;;;;;;;4399019;32;67215;-56
2023/08/09 03:10:18;;;;;;;10.17;4.60;;;;;;;;;;4398579;32;70657;-56
2023/08/09 03:13:05;;;;;;;7.45;4.30;;;;;;;;;;4375983;32;65078;-56
2023/08/09 03:15:52;;;;;;;8.73;4.05;;;;;;;;;;4398908;32;67521;-56
2023/08/09 03:18:40;;;;;;;10.48;4.60;;;;;;;;;;4383744;32;66526;-57
2023/08/09 03:21:28;;;;;;;12.80;5.30;;;;;;;;;;4398602;32;71664;-56
2023/08/09 03:24:14;;;;;;;;;;;;;;;;;;4399430;32;65830;-56
2023/08/09 03:27:01;;;;;;;10.45;5.47;;;;;;;;;;4398640;32;68037;-57
2023/08/09 03:29:48;;;;;;;8.88;4.72;;;;;;;;;;4398404;32;59130;-56
2023/08/09 03:32:36;;;;;;;8.77;4.90;;;;;;;;;;4398118;32;70482;-56
2023/08/09 03:35:23;;;;;;;8.65;5.20;;;;;;;;;;4398367;32;69194;-56
2023/08/09 03:38:10;;;;;;;8.35;5.07;;;;;;;;;;4398312;32;67664;-57
2023/08/09 03:43:17;;;;;;;8.70;4.68;;;;;;;;;;3850309;37;43858;-56
2023/08/09 03:46:05;;;;;;;11.60;4.62;;;;;;;;;;4414542;32;61611;-57
2023/08/09 03:48:51;;;;;;;7.95;4.82;;;;;;;;;;4416531;32;70350;-57
2023/08/09 03:51:39;;;;;;;9.85;5.10;;;;;;;;;;4416375;32;68619;-57
2023/08/09 03:54:26;;;;;;;12.90;4.97;;;;;;;;;;4413891;32;67628;-56
2023/08/09 03:57:13;;;;;;;9.00;4.65;;;;;;;;;;4411167;32;71880;-57
2023/08/09 04:00:00;;;;;;;9.63;5.47;;;;;;;;;;4409753;32;66197;-56
2023/08/09 04:02:48;;;;;;;13.27;6.50;;;;;;;;;;4409678;32;67206;-56
2023/08/09 04:05:35;;;;;;;16.80;5.40;;;;;;;;;;4409925;32;59287;-56
2023/08/09 04:08:21;;;;;;;;;;;;;;;;;;4410990;32;71794;-56
2023/08/09 04:11:08;;;;;;;14.50;5.05;;;;;;;;;;4410919;32;65047;-57
2023/08/09 04:13:54;;;;;;;10.07;4.97;;;;;;;;;;4387361;32;67844;-56
2023/08/09 04:16:41;;;;;;;9.32;5.90;;;;;;;;;;4410798;32;58809;-56
2023/08/09 04:19:27;;;;;;;9.45;4.62;;;;;;;;;;4410643;32;69315;-56
2023/08/09 04:22:14;;;;;;;11.02;5.43;;;;;;;;;;4410385;32;69404;-57
2023/08/09 04:25:01;;;;;;;10.23;5.43;;;;;;;;;;4408657;32;68305;-57
2023/08/09 04:27:48;;;;;;;10.85;5.82;;;;;;;;;;4409922;32;71626;-57
2023/08/09 04:30:35;;;;;;;12.30;6.22;;;;;;;;;;4408940;32;66696;-57
2023/08/09 04:33:24;;;;;;;10.40;5.97;;;;;;;;;;4410409;32;69399;-57
2023/08/09 04:36:10;;;;;;;12.48;6.80;;;;;;;;;;4410266;32;66627;-57
2023/08/09 04:38:58;;;;;;;10.75;5.75;;;;;;;;;;4410702;32;70869;-56
2023/08/09 04:41:44;;;;;;;11.32;5.70;;;;;;;;;;4408486;32;64932;-56
2023/08/09 04:44:31;;;;;;;12.60;6.07;;;;;;;;;;4410159;32;68142;-57
2023/08/09 04:47:17;;;;;;;;;;;;;;;;;;4410611;32;59380;-57
2023/08/09 04:50:05;;;;;;;11.15;6.03;;;;;;;;;;4410354;32;70347;-56
2023/08/09 04:52:52;;;;;;;9.02;4.90;;;;;;;;;;4407001;32;68472;-57
2023/08/09 04:55:38;;;;;;;9.07;4.55;;;;;;;;;;4399741;32;67030;-56
2023/08/09 04:58:25;;;;;;;;;;;;;;;;;;4400766;32;59103;-57
2023/08/09 05:01:11;;;;;;;10.88;5.30;;;;;;;;;;4399823;32;69486;-57
2023/08/09 05:03:58;;;;;;;;;;;;;;;;;;4400213;32;68269;-56
2023/08/09 05:06:49;;;;;;;9.48;4.53;;;;;;;;;;4399933;32;66961;-57
2023/08/09 05:09:36;;;;;;;7.97;4.37;;;;;;;;;;4399658;32;71425;-57
2023/08/09 05:14:57;;;;;;;8.73;4.28;;;;;;;;;;3848352;37;43896;-56
2023/08/09 05:17:43;;;;;;;10.70;4.80;;;;;;;;;;4411370;32;60078;-57
2023/08/09 05:20:30;;;;;;;8.30;3.80;;;;;;;;;;4411006;32;69924;-57
2023/08/09 05:23:17;;;;;;;9.15;4.53;;;;;;;;;;4410843;32;69429;-56
2023/08/09 05:26:03;;;;;;;10.23;4.95;;;;;;;;;;4409683;32;66992;-57
2023/08/09 05:28:51;;;;;;;8.30;4.70;;;;;;;;;;4410602;32;70775;-57
2023/08/09 05:31:38;;;;;;;7.55;4.45;;;;;;;;;;4409589;32;65968;-57
2023/08/09 05:34:25;;;;;;;10.88;4.93;;;;;;;;;;4410786;32;66772;-57
2023/08/09 05:37:11;;;;;;;6.28;3.90;;;;;;;;;;4410993;32;60190;-57
2023/08/09 05:39:58;;;;;;;7.40;4.90;;;;;;;;;;4410680;32;70775;-57
2023/08/09 05:42:44;;;;;;;;;;;;;;;;;;4411169;32;66092;-56
2023/08/09 05:45:31;;;;;;;5.20;3.47;;;;;;;;;;4410790;32;68138;-57
2023/08/09 05:48:17;;;;;;;8.13;3.58;;;;;;;;;;4410897;32;60168;-57
2023/08/09 05:51:04;;;;;;;8.77;3.58;;;;;;;;;;4409011;32;70376;-57
2023/08/09 05:53:51;;;;;;;5.62;3.60;;;;;;;;;;4410405;32;69321;-56
2023/08/09 05:56:38;;;;;;;4.28;3.10;;;;;;;;;;4409196;32;67563;-56
2023/08/09 05:59:24;;;;;;;4.95;3.17;;;;;;;;;;4410300;32;71690;-56
2023/08/09 06:02:11;;;;;;;7.57;4.20;;;;;;;;;;4409598;32;65734;-56
2023/08/09 06:04:58;;;;;;;5.37;2.65;;;;;;;;;;4409043;32;69368;-57
2023/08/09 06:07:45;;;;;;;;;;;;;;;;;;4409349;32;66724;-56
2023/08/09 06:10:32;;;;;;;7.82;4.53;;;;;;;;;;4410201;32;71879;-57
2023/08/09 06:13:18;;;;;;;8.65;3.92;;;;;;;;;;4409863;32;65163;-57
2023/08/09 06:16:05;;;;;;;7.22;3.85;;;;;;;;;;4397694;32;68348;-56
2023/08/09 06:18:51;;;;;;;3.58;2.75;;;;;;;;;;4410487;32;59240;-56
2023/08/09 06:21:38;;;;;;;4.37;3.55;;;;;;;;;;4410111;32;70447;-57
2023/08/09 06:24:25;;;;;;;13.00;3.37;;;;;;;;;;4384923;32;68594;-57
2023/08/09 06:27:12;;;;;;;4.07;3.15;;;;;;;;;;4399809;32;66553;-56
2023/08/09 06:29:58;;;;;;;;;;;;;;;;;;4400508;32;60440;-57
2023/08/09 06:32:44;;;;;;;6.57;3.40;;;;;;;;;;4398565;32;70325;-57
2023/08/09 06:35:32;;;;;;;4.35;3.50;;;;;;;;;;4399803;32;69435;-57
2023/08/09 06:38:19;;;;;;;8.45;3.42;;;;;;;;;;4399597;32;67062;-56
2023/08/09 06:41:05;;;;;;;6.32;3.35;;;;;;;;;;4399255;32;72229;-56
2023/08/09 06:43:52;;;;;;;7.72;3.33;;;;;;;;;;4399789;32;65805;-57
2023/08/09 06:46:38;;;;;;;6.82;3.35;;;;;;;;;;4399413;32;66867;-57
2023/08/09 06:49:25;;;;;;;6.20;3.33;;;;;;;;;;4397985;32;60658;-56
2023/08/09 06:52:11;;;;;;;4.32;3.22;;;;;;;;;;4399537;32;70546;-57
2023/08/09 06:54:58;;;;;;;4.20;3.20;;;;;;;;;;4399461;32;66436;-57
2023/08/09 06:57:44;;;;;;;5.93;3.75;;;;;;;;;;4398287;32;66592;-57
2023/08/09 07:00:31;;;;;;;5.50;3.17;;;;;;;;;;4399882;32;60322;-57
2023/08/09 07:03:17;;;;;;;4.85;3.20;;;;;;;;;;4399335;32;70786;-57
2023/08/09 07:06:04;;;;;;;4.80;2.97;;;;;;;;;;4399403;32;69405;-57
2023/08/09 07:08:54;;;;;;;3.40;2.65;;;;;;;;;;4397526;32;67922;-57
2023/08/09 07:11:40;;;;;;;3.97;3.17;;;;;;;;;;4386442;32;71925;-56
2023/08/09 07:14:27;;;;;;;4.70;3.20;;;;;;;;;;4397134;32;66762;-56
2023/08/09 07:17:13;;;;;;;6.10;3.20;;;;;;;;;;4399312;32;67144;-57
2023/08/09 07:19:59;;;;;;;6.45;4.20;;;;;;;;;;4399231;32;67662;-56
2023/08/09 07:22:46;;;;;;;7.18;3.53;;;;;;;;;;4399078;32;72011;-57
2023/08/09 07:25:32;;;;;;;;;;;;;;;;;;4398108;32;65889;-56
2023/08/09 07:28:22;;;;;;;7.00;3.47;;;;;;;;;;4399214;32;66983;-57
2023/08/09 07:31:22;;;;;;;5.70;3.00;;;;;;;;;;4397938;32;60652;-56
2023/08/09 07:34:09;;;;;;;5.25;2.78;;;;;;;;;;4398793;32;70048;-56
2023/08/09 07:36:55;;;;;;;4.18;2.97;;;;;;;;;;4385540;32;70465;-57
2023/08/09 07:39:42;;;;;;;4.00;3.05;;;;;;;;;;4398705;32;67165;-56
2023/08/09 07:42:28;;;;;;;4.57;2.95;;;;;;;;;;4397991;32;59902;-56
2023/08/09 07:45:15;;;;;;;4.00;3.20;;;;;;;;;;4398761;32;70280;-57
2023/08/09 07:48:02;;;;;;;4.12;2.60;;;;;;;;;;4397324;32;69261;-56
2023/08/09 07:50:49;;;;;;;3.97;3.05;;;;;;;;;;4397462;32;68044;-57
2023/08/09 07:53:35;;;;;;;3.25;2.40;;;;;;;;;;4397368;32;71531;-56
2023/08/09 07:56:22;;;;;;;4.53;2.03;;;;;;;;;;4398587;32;64891;-57
2023/08/09 07:59:08;;;;;;;;;;;;;;;;;;4399033;32;66675;-57
2023/08/09 08:01:55;;;;;;;4.70;3.03;;;;;;;;;;4399301;32;59991;-57
2023/08/09 08:04:41;;;;;;;5.22;2.78;;;;;;;;;;4398373;32;70205;-57
2023/08/09 08:07:28;;;;;;;;;;;;;;;;;;4397615;32;64921;-57
2023/08/09 08:10:15;;;;;;;5.00;3.08;;;;;;;;;;4396925;32;69132;-57
2023/08/09 08:13:01;;;;;;;4.47;3.00;;;;;;;;;;4398243;32;59531;-57
2023/08/09 08:15:50;;;;;;;6.20;3.17;;;;;;;;;;4398255;32;70526;-57
2023/08/09 08:18:36;;;;;;;4.00;2.90;;;;;;;;;;4398346;32;68108;-56
2023/08/09 08:21:23;;;;;;;5.62;3.30;;;;;;;;;;4398311;32;66420;-57
2023/08/09 08:24:10;;;;;;;;;;;;;;;;;;4398727;32;71563;-57
2023/08/09 08:26:57;;;;;;;5.03;2.97;;;;;;;;;;4398617;32;65082;-57
2023/08/09 08:29:44;;;;;;;;;;;;;;;;;;4398949;32;66657;-56
2023/08/09 08:32:30;;;;;;;3.90;2.83;;;;;;;;;;4398459;32;66892;-55
2023/08/09 08:35:20;;;;;;;3.55;2.50;;;;;;;;;;4398078;32;70869;-56
2023/08/09 08:38:07;;;;;;;4.20;2.50;;;;;;;;;;4385477;32;65856;-57
2023/08/09 08:40:54;;;;;;;3.87;2.80;;;;;;;;;;4398141;32;67388;-57
2023/08/09 08:43:41;;;;;;;3.97;2.58;;;;;;;;;;4397004;32;59841;-57
2023/08/09 08:46:28;;;;;;;5.87;2.80;;;;;;;;;;4386166;32;70593;-56
2023/08/09 08:49:19;;;;;;;4.30;2.90;;;;;;;;;;4396775;32;69220;-57
2023/08/09 08:52:10;;;;;;;4.10;2.60;;;;;;;;;;4386082;32;67595;-57
2023/08/09 08:54:56;;;;;;;3.28;2.62;;;;;;;;;;4398119;32;71235;-56
2023/08/09 08:57:46;;;;;;;4.70;2.67;;;;;;;;;;4375217;32;70354;-57
2023/08/09 09:00:33;;;;;;;3.25;2.47;;;;;;;;;;4397238;32;68413;-56
2023/08/09 09:03:19;;;;;;;4.70;2.95;;;;;;;;;;4396748;32;67626;-56
2023/08/09 09:06:06;;;;;;;8.38;3.00;;;;;;;;;;4397813;32;70709;-56
2023/08/09 09:08:59;;;;;;;;;;;;;;;;;;4398442;32;65966;-56
2023/08/09 09:11:46;;;;;;;4.55;2.58;;;;;;;;;;4396336;32;68730;-57
2023/08/09 09:14:32;;;;;;;3.45;2.70;;;;;;;;;;4397692;32;60014;-57
2023/08/09 09:17:22;;;;;;;5.62;2.85;;;;;;;;;;4396494;32;69369;-57
2023/08/09 09:20:21;;;;;;;3.85;2.97;;;;;;;;;;4385270;32;70814;-57
2023/08/09 09:23:07;;;;;;;3.75;2.40;;;;;;;;;;4396487;32;67450;-56
2023/08/09 09:26:07;;;;;;;2.72;2.47;;;;;;;;;;4396127;32;61200;-58
2023/08/09 09:28:54;;;;;;;3.62;2.92;;;;;;;;;;4397792;32;69536;-57
2023/08/09 09:31:40;;;;;;;;;;;;;;;;;;4398135;32;68341;-56
2023/08/09 09:34:31;;;;;;;3.60;2.60;;;;;;;;;;4397772;32;67211;-57
2023/08/09 09:37:25;;;;;;;4.05;2.30;;;;;;;;;;4396303;32;70693;-57
2023/08/09 09:40:12;;;;;;;3.78;2.60;;;;;;;;;;4397792;32;66166;-57
2023/08/09 09:42:59;;;;;;;4.55;2.80;;;;;;;;;;4396461;32;67773;-57
2023/08/09 09:45:46;;;;;;;3.60;2.58;;;;;;;;;;4385582;32;60740;-56
2023/08/09 09:48:33;;;;;;;4.40;2.85;;;;;;;;;;4396301;32;71923;-57
2023/08/09 09:51:20;;;;;;;6.53;2.67;;;;;;;;;;4400050;32;64766;-58
2023/08/09 09:54:07;;;;;;;3.10;2.33;;;;;;;;;;4387495;32;68432;-57
2023/08/09 09:56:54;;;;;;;3.67;2.37;;;;;;;;;;4400017;32;60236;-57
2023/08/09 09:59:41;;;;;;;3.05;2.33;;;;;;;;;;4398004;32;70542;-57
2023/08/09 10:02:45;;;;;;;4.43;2.45;;;;;;;;;;4398767;32;69350;-57
2023/08/09 10:05:40;;;;;;;5.32;2.78;;;;;;;;;;4398812;32;67801;-57
2023/08/09 10:08:28;;;;;;;4.62;2.70;;;;;;;;;;4398858;32;71579;-57
2023/08/09 10:11:15;;;;;;;4.47;2.97;;;;;;;;;;4398703;32;69594;-56
2023/08/09 10:14:02;;;;;;;;;;;;;;;;;;4398491;32;69105;-57
2023/08/09 10:16:50;;;;;;;5.12;3.65;;;;;;;;;;4400280;32;67969;-57
2023/08/09 10:19:37;;;;;;;3.80;2.87;;;;;;;;;;4398533;32;71598;-56
2023/08/09 10:22:25;;;;;;;4.40;2.90;;;;;;;;;;4398589;32;66258;-57
2023/08/09 10:25:12;;;;;;;6.45;3.15;;;;;;;;;;4399848;32;67375;-56
2023/08/09 10:28:01;;;;;;;4.72;3.10;;;;;;;;;;4398830;32;59341;-56
2023/08/09 10:30:49;;;;;;;5.95;3.05;;;;;;;;;;4387456;32;70779;-57
2023/08/09 10:33:36;;;;;;;4.72;2.90;;;;;;;;;;4399847;32;68581;-56
2023/08/09 10:36:33;;;;;;;4.25;3.20;;;;;;;;;;4399728;32;67970;-57
2023/08/09 10:39:20;;;;;;;4.85;3.33;;;;;;;;;;4398120;32;60846;-56
2023/08/09 10:42:10;;;;;;;5.65;3.22;;;;;;;;;;4399508;32;70496;-56
2023/08/09 10:45:04;;;;;;;4.60;3.60;;;;;;;;;;4387642;32;69250;-57
2023/08/09 10:47:51;;;;;;;6.50;3.10;;;;;;;;;;4397621;32;66751;-57
2023/08/09 10:50:37;;;;;;;5.28;3.50;;;;;;;;;;4387375;32;70258;-56
2023/08/09 10:53:24;;;;;;;5.40;3.22;;;;;;;;;;4398739;32;65024;-58
2023/08/09 10:56:36;;;;;;;4.75;3.30;;;;;;;;;;4399419;32;67961;-57
2023/08/09 10:59:24;;;;;;;4.82;3.70;;;;;;;;;;4399503;32;60126;-57
2023/08/09 11:02:11;;;;;;;4.45;3.17;;;;;;;;;;4399137;32;72299;-56
2023/08/09 11:04:58;;;;;;;7.93;3.30;;;;;;;;;;4397770;32;63580;-56
2023/08/09 11:07:53;;;;;;;4.72;3.17;;;;;;;;;;4399215;32;67006;-57
2023/08/09 11:10:41;;;;;;;6.22;3.50;;;;;;;;;;4398071;32;60345;-57
2023/08/09 11:13:29;;;;;;;4.35;3.25;;;;;;;;;;4397533;32;70496;-56
2023/08/09 11:16:16;;;;;;;5.32;3.65;;;;;;;;;;4398894;32;68352;-57
2023/08/09 11:19:10;;;;;;;5.05;3.67;;;;;;;;;;4397909;32;67072;-57
2023/08/09 11:21:56;;;;;;;4.70;3.60;;;;;;;;;;4387077;32;71385;-57
2023/08/09 11:24:44;;;;;;;5.05;3.60;;;;;;;;;;4403122;32;66544;-57
2023/08/09 11:27:30;;;;;;;5.28;3.83;;;;;;;;;;4403342;32;69793;-56
2023/08/09 11:30:20;;;;;;;5.45;4.22;;;;;;;;;;4390613;32;67189;-56
2023/08/09 11:33:09;;;;;;;5.65;3.90;;;;;;;;;;4399855;32;70874;-57
2023/08/09 11:35:58;;;;;;;5.90;4.07;;;;;;;;;;4403984;32;66163;-56
2023/08/09 11:38:48;;;;;;;5.72;3.80;;;;;;;;;;4399627;32;67107;-56
2023/08/09 11:41:57;;;;;;;5.43;3.87;;;;;;;;;;4398111;32;60999;-55
2023/08/09 11:45:04;;;;;;;5.07;3.72;;;;;;;;;;4398718;32;71335;-57
2023/08/09 11:47:52;;;;;;;5.37;4.05;;;;;;;;;;4398499;32;68849;-58
2023/08/09 11:50:39;;;;;;;4.47;3.17;;;;;;;;;;4397521;32;67805;-56
2023/08/09 11:53:26;;;;;;;5.35;3.42;;;;;;;;;;4399078;32;59334;-57
2023/08/09 11:56:33;;;;;;;7.32;3.97;;;;;;;;;;4397550;32;70239;-57
2023/08/09 11:59:24;;;;;;;6.25;4.35;;;;;;;;;;4398713;32;68270;-57
2023/08/09 12:02:28;;;;;;;6.12;4.10;;;;;;;;;;4398568;32;67332;-57
2023/08/09 12:05:15;;;;;;;7.28;4.75;;;;;;;;;;4397414;32;71515;-57
2023/08/09 12:08:10;;;;;;;6.95;3.70;;;;;;;;;;4375206;32;66984;-57
2023/08/09 12:10:57;;;;;;;6.68;4.70;;;;;;;;;;4385868;32;67082;-57
2023/08/09 12:13:43;;;;;;;6.45;4.05;;;;;;;;;;4398539;32;59084;-57
2023/08/09 12:16:30;;;;;;;6.03;4.18;;;;;;;;;;4386488;32;69629;-57
2023/08/09 12:19:16;;;;;;;;;;;;;;;;;;4386431;32;66334;-57
2023/08/09 12:22:04;;;;;;;5.15;3.83;;;;;;;;;;4385531;32;67719;-57
2023/08/09 12:25:10;;;;;;;5.85;4.10;;;;;;;;;;4398472;32;61011;-57
2023/08/09 12:27:58;;;;;;;6.65;4.07;;;;;;;;;;4398482;32;70840;-57
2023/08/09 12:30:44;;;;;;;5.32;4.18;;;;;;;;;;4398417;32;69334;-57
2023/08/09 12:33:31;;;;;;;5.12;3.85;;;;;;;;;;4396985;32;67654;-57
2023/08/09 12:36:18;;;;;;;6.15;4.47;;;;;;;;;;4398069;32;71520;-57
2023/08/09 12:39:10;;;;;;;5.60;3.80;;;;;;;;;;4375285;32;65677;-58
2023/08/09 12:41:56;;;;;;;5.10;3.90;;;;;;;;;;4396385;32;69438;-57
2023/08/09 12:44:43;;;;;;;6.00;4.00;;;;;;;;;;4396483;32;67710;-57
2023/08/09 12:47:29;;;;;;;5.50;3.83;;;;;;;;;;4398423;32;71558;-56
2023/08/09 12:50:16;;;;;;;6.05;4.12;;;;;;;;;;4386104;32;66412;-57
2023/08/09 12:53:03;;;;;;;5.07;4.10;;;;;;;;;;4396709;32;67772;-57
2023/08/09 12:55:50;;;;;;;5.72;3.97;;;;;;;;;;4398259;32;60638;-56
2023/08/09 12:58:36;;;;;;;4.82;3.58;;;;;;;;;;4396112;32;69261;-57
2023/08/09 13:01:23;;;;;;;6.85;4.10;;;;;;;;;;4396159;32;70168;-57
2023/08/09 13:04:09;;;;;;;4.60;3.42;;;;;;;;;;4385058;32;68647;-57
2023/08/09 13:06:56;;;;;;;4.47;3.58;;;;;;;;;;4396217;32;61210;-57
2023/08/09 13:09:42;;;;;;;;;;;;;;;;;;4396988;32;70715;-57
2023/08/09 13:12:28;;;;;;;7.40;4.13;;;;;;;;;;4397876;32;68803;-56
2023/08/09 13:15:17;;;;;;;5.22;3.70;;;;;;;;;;4395973;32;67724;-57
2023/08/09 13:18:04;;;;;;;5.10;3.72;;;;;;;;;;4397726;32;71679;-57
2023/08/09 13:20:51;;;;;;;5.35;3.37;;;;;;;;;;4397814;32;66079;-57
2023/08/09 13:23:38;;;;;;;4.12;3.28;;;;;;;;;;4396461;32;67809;-57
2023/08/09 13:26:25;;;;;;;5.28;3.55;;;;;;;;;;4396843;32;59165;-56
2023/08/09 13:29:12;;;;;;;6.75;4.60;;;;;;;;;;4396390;32;69810;-57
2023/08/09 13:31:59;;;;;;;7.00;3.45;;;;;;;;;;4397652;32;65112;-56
2023/08/09 13:34:48;;;;;;;4.80;3.35;;;;;;;;;;4398318;32;68281;-57
2023/08/09 13:37:41;;;;;;;4.95;3.17;;;;;;;;;;4399422;32;58926;-57
2023/08/09 13:40:28;;;;;;;4.68;2.92;;;;;;;;;;4400335;32;70542;-57
2023/08/09 13:43:15;;;;;;;4.70;3.22;;;;;;;;;;4400376;32;69685;-57
2023/08/09 13:46:02;;;;;;;4.37;3.15;;;;;;;;;;4400296;32;67566;-57
2023/08/09 13:48:48;;;;;;;4.12;3.22;;;;;;;;;;4398675;32;70642;-56
2023/08/09 13:51:35;;;;;;;4.43;3.15;;;;;;;;;;4400323;32;65678;-56
2023/08/09 13:54:24;;;;;;;5.12;3.17;;;;;;;;;;4400441;32;68265;-57
2023/08/09 13:57:10;;;;;;;5.40;3.40;;;;;;;;;;4398870;32;67665;-57
2023/08/09 14:00:00;;;;;;;5.65;4.15;;;;;;;;;;4400077;32;70682;-57
2023/08/09 14:02:47;;;;;;;4.05;3.17;;;;;;;;;;4400265;32;64938;-56
2023/08/09 14:05:34;;;;;;;6.95;3.72;;;;;;;;;;4398376;32;67469;-56
2023/08/09 14:08:20;;;;;;;6.37;4.07;;;;;;;;;;4400308;32;60107;-56
2023/08/09 14:11:07;;;;;;;7.32;3.50;;;;;;;;;;4399984;32;70744;-57
2023/08/09 14:13:53;;;;;;;;;;;;;;;;;;4399965;32;69579;-57
2023/08/09 14:16:42;;;;;;;5.35;3.47;;;;;;;;;;4400147;32;67813;-57
2023/08/09 14:19:29;;;;;;;5.78;3.30;;;;;;;;;;4400166;32;71477;-57
2023/08/09 14:22:15;;;;;;;6.70;3.62;;;;;;;;;;4400016;32;70547;-57
2023/08/09 14:25:02;;;;;;;;;;;;;;;;;;4400356;32;69308;-57
2023/08/09 14:27:48;;;;;;;4.90;3.03;;;;;;;;;;4400071;32;67703;-57
2023/08/09 14:30:35;;;;;;;5.03;3.20;;;;;;;;;;4398644;32;71610;-57
2023/08/09 14:33:22;;;;;;;5.50;3.78;;;;;;;;;;4399915;32;65061;-58
2023/08/09 14:36:08;;;;;;;4.87;3.70;;;;;;;;;;4398692;32;68526;-57
2023/08/09 14:38:54;;;;;;;7.15;3.20;;;;;;;;;;4401233;32;59149;-57
2023/08/09 14:41:41;;;;;;;4.43;3.33;;;;;;;;;;4399613;32;70916;-57
2023/08/09 14:44:28;;;;;;;8.18;3.70;;;;;;;;;;4398489;32;68432;-56
2023/08/09 14:47:14;;;;;;;4.93;3.45;;;;;;;;;;4399158;32;67795;-56
2023/08/09 14:50:01;;;;;;;5.70;3.37;;;;;;;;;;4399717;32;60665;-56
2023/08/09 14:52:48;;;;;;;6.78;3.40;;;;;;;;;;4399571;32;70253;-57
2023/08/09 14:55:39;;;;;;;4.62;3.55;;;;;;;;;;4399687;32;69681;-57
2023/08/09 14:58:25;;;;;;;4.95;3.47;;;;;;;;;;4399582;32;67953;-57
2023/08/09 15:01:12;;;;;;;8.05;3.55;;;;;;;;;;4397657;32;72509;-57
2023/08/09 15:03:58;;;;;;;4.87;3.50;;;;;;;;;;4399466;32;65965;-57
2023/08/09 15:06:46;;;;;;;5.07;3.55;;;;;;;;;;4399671;32;67004;-56
2023/08/09 15:09:33;;;;;;;5.45;3.70;;;;;;;;;;4399354;32;67690;-57
2023/08/09 15:12:20;;;;;;;6.18;3.37;;;;;;;;;;4399230;32;70501;-57
2023/08/09 15:15:07;;;;;;;5.45;3.65;;;;;;;;;;4399318;32;65677;-57
2023/08/09 15:17:54;;;;;;;5.30;3.30;;;;;;;;;;4399358;32;67052;-57
2023/08/09 15:20:40;;;;;;;;;;;;;;;;;;4400119;32;59272;-57
2023/08/09 15:23:27;;;;;;;5.53;4.35;;;;;;;;;;4399446;32;69564;-57
2023/08/09 15:26:13;;;;;;;6.53;4.22;;;;;;;;;;4399502;32;69375;-58
2023/08/09 15:29:01;;;;;;;8.02;4.20;;;;;;;;;;4400856;32;67448;-57
2023/08/09 15:31:49;;;;;;;7.30;4.40;;;;;;;;;;4399949;32;72523;-57
2023/08/09 15:34:36;;;;;;;7.28;4.15;;;;;;;;;;4401754;32;70500;-58
2023/08/09 15:37:22;;;;;;;5.18;3.97;;;;;;;;;;4402040;32;69424;-57
2023/08/09 15:40:12;;;;;;;8.00;4.40;;;;;;;;;;4402114;32;67552;-56
2023/08/09 15:43:01;;;;;;;5.32;4.03;;;;;;;;;;4398637;32;70823;-57
2023/08/09 15:45:48;;;;;;;8.10;4.57;;;;;;;;;;4397915;32;66333;-57
2023/08/09 15:48:34;;;;;;;9.82;4.75;;;;;;;;;;4397062;32;67386;-56
2023/08/09 15:51:21;;;;;;;7.12;4.93;;;;;;;;;;4398110;32;59217;-57
2023/08/09 15:54:08;;;;;;;6.87;4.75;;;;;;;;;;4398911;32;70810;-57
2023/08/09 15:56:56;;;;;;;8.48;4.47;;;;;;;;;;4398980;32;68396;-57
2023/08/09 15:59:45;;;;;;;7.40;4.40;;;;;;;;;;4399010;32;67281;-58
2023/08/09 16:02:32;;;;;;;7.18;4.47;;;;;;;;;;4399213;32;60427;-57
2023/08/09 16:05:25;;;;;;;8.05;4.20;;;;;;;;;;4398620;32;70384;-56
2023/08/09 16:08:12;;;;;;;7.12;4.25;;;;;;;;;;4398653;32;69059;-57
2023/08/09 16:10:59;;;;;;;9.05;4.53;;;;;;;;;;4398563;32;67703;-57
2023/08/09 16:13:46;;;;;;;7.72;4.37;;;;;;;;;;4396806;32;71761;-57
2023/08/09 16:16:32;;;;;;;9.20;4.57;;;;;;;;;;4398444;32;65769;-57
2023/08/09 16:19:19;;;;;;;;;;;;;;;;;;4397574;32;66976;-57
2023/08/09 16:22:05;;;;;;;8.13;5.10;;;;;;;;;;4398890;32;58792;-57
2023/08/09 16:24:52;;;;;;;;;;;;;;;;;;4398641;32;71631;-57
2023/08/09 16:27:39;;;;;;;9.18;5.30;;;;;;;;;;4398609;32;66264;-56
2023/08/09 16:30:26;;;;;;;8.55;5.70;;;;;;;;;;4397162;32;68149;-57
2023/08/09 16:33:12;;;;;;;10.82;5.75;;;;;;;;;;4386528;32;58916;-57
2023/08/09 16:37:15;;;;;;;9.27;5.85;;;;;;;;;;3868648;36;43054;-57
2023/08/09 16:40:08;;;;;;;9.50;5.65;;;;;;;;;;4426411;32;60229;-57
2023/08/09 16:42:54;;;;;;;9.95;6.28;;;;;;;;;;4414625;32;70608;-56
2023/08/09 16:45:40;;;;;;;;;;;;;;;;;;4414361;32;68470;-58
2023/08/09 16:48:27;;;;;;;9.93;5.37;;;;;;;;;;4414136;32;67871;-57
2023/08/09 16:51:13;;;;;;;11.65;5.80;;;;;;;;;;4426105;32;72106;-56
2023/08/09 16:53:59;;;;;;;14.32;6.15;;;;;;;;;;4414017;32;66256;-57
2023/08/09 16:56:47;;;;;;;13.05;5.60;;;;;;;;;;4426093;32;66563;-57
2023/08/09 16:59:34;;;;;;;8.43;5.55;;;;;;;;;;4426272;32;60167;-57
2023/08/09 17:02:21;;;;;;;9.43;5.10;;;;;;;;;;4425876;32;71427;-57